sensor_id;sensor_type;location;lat;lon;timestamp;P1;durP1;ratioP1;P2;durP2;ratioP2
84011;SDS011;74081;52.490;13.428;2024-03-02T00:01:34;55.33;;;43.40;;
84011;SDS011;74081;52.490;13.428;2024-03-02T00:04:02;57.33;;;42.97;;
84011;SDS011;74081;52.490;13.428;2024-03-02T00:06:30;58.80;;;43.30;;
84011;SDS011;74081;52.490;13.428;2024-03-02T00:08:58;55.60;;;43.23;;
84011;SDS011;74081;52.490;13.428;2024-03-02T00:11:25;51.00;;;42.20;;
84011;SDS011;74081;52.490;13.428;2024-03-02T00:13:53;53.70;;;43.53;;
84011;SDS011;74081;52.490;13.428;2024-03-02T00:16:20;56.13;;;42.10;;
84011;SDS011;74081;52.490;13.428;2024-03-02T00:18:47;56.87;;;40.47;;
84011;SDS011;74081;52.490;13.428;2024-03-02T00:21:14;56.30;;;41.00;;
84011;SDS011;74081;52.490;13.428;2024-03-02T00:23:42;48.03;;;37.93;;
84011;SDS011;74081;52.490;13.428;2024-03-02T00:26:09;51.57;;;37.80;;
84011;SDS011;74081;52.490;13.428;2024-03-02T00:28:38;48.10;;;37.00;;
84011;SDS011;74081;52.490;13.428;2024-03-02T00:36:09;53.43;;;39.80;;
84011;SDS011;74081;52.490;13.428;2024-03-02T00:38:42;52.47;;;40.60;;
84011;SDS011;74081;52.490;13.428;2024-03-02T00:41:19;56.30;;;42.27;;
84011;SDS011;74081;52.490;13.428;2024-03-02T00:44:04;53.50;;;39.67;;
84011;SDS011;74081;52.490;13.428;2024-03-02T00:46:35;51.03;;;38.27;;
84011;SDS011;74081;52.490;13.428;2024-03-02T00:49:03;49.00;;;37.20;;
84011;SDS011;74081;52.490;13.428;2024-03-02T00:51:32;52.20;;;39.53;;
84011;SDS011;74081;52.490;13.428;2024-03-02T00:54:01;51.40;;;39.03;;
84011;SDS011;74081;52.490;13.428;2024-03-02T00:56:31;48.93;;;37.43;;
84011;SDS011;74081;52.490;13.428;2024-03-02T00:58:59;48.80;;;37.70;;
84011;SDS011;74081;52.490;13.428;2024-03-02T01:01:26;51.17;;;39.33;;
84011;SDS011;74081;52.490;13.428;2024-03-02T01:03:53;58.03;;;41.60;;
84011;SDS011;74081;52.490;13.428;2024-03-02T01:06:20;53.13;;;38.83;;
84011;SDS011;74081;52.490;13.428;2024-03-02T01:08:48;53.60;;;39.00;;
84011;SDS011;74081;52.490;13.428;2024-03-02T01:11:18;50.33;;;37.50;;
84011;SDS011;74081;52.490;13.428;2024-03-02T01:13:49;51.50;;;39.13;;
84011;SDS011;74081;52.490;13.428;2024-03-02T01:16:16;55.73;;;42.50;;
84011;SDS011;74081;52.490;13.428;2024-03-02T01:18:42;56.17;;;40.40;;
84011;SDS011;74081;52.490;13.428;2024-03-02T01:21:09;48.20;;;38.87;;
84011;SDS011;74081;52.490;13.428;2024-03-02T01:23:36;53.30;;;39.53;;
84011;SDS011;74081;52.490;13.428;2024-03-02T01:26:03;47.37;;;39.33;;
84011;SDS011;74081;52.490;13.428;2024-03-02T01:28:30;56.40;;;39.47;;
84011;SDS011;74081;52.490;13.428;2024-03-02T01:30:56;53.67;;;40.00;;
84011;SDS011;74081;52.490;13.428;2024-03-02T01:33:23;52.60;;;38.10;;
84011;SDS011;74081;52.490;13.428;2024-03-02T01:35:50;48.77;;;38.50;;
84011;SDS011;74081;52.490;13.428;2024-03-02T01:38:17;53.00;;;40.03;;
84011;SDS011;74081;52.490;13.428;2024-03-02T01:40:44;51.70;;;39.77;;
84011;SDS011;74081;52.490;13.428;2024-03-02T01:43:11;57.50;;;40.77;;
84011;SDS011;74081;52.490;13.428;2024-03-02T01:45:38;52.43;;;39.47;;
84011;SDS011;74081;52.490;13.428;2024-03-02T01:48:06;53.90;;;39.93;;
84011;SDS011;74081;52.490;13.428;2024-03-02T01:50:34;49.37;;;38.43;;
84011;SDS011;74081;52.490;13.428;2024-03-02T01:53:01;56.10;;;41.80;;
84011;SDS011;74081;52.490;13.428;2024-03-02T01:55:31;54.00;;;38.80;;
84011;SDS011;74081;52.490;13.428;2024-03-02T01:57:59;57.53;;;40.50;;
84011;SDS011;74081;52.490;13.428;2024-03-02T02:00:26;53.47;;;38.60;;
84011;SDS011;74081;52.490;13.428;2024-03-02T02:02:53;49.43;;;39.10;;
84011;SDS011;74081;52.490;13.428;2024-03-02T02:05:21;46.67;;;37.77;;
84011;SDS011;74081;52.490;13.428;2024-03-02T02:07:48;53.23;;;40.30;;
84011;SDS011;74081;52.490;13.428;2024-03-02T02:10:15;54.70;;;39.97;;
84011;SDS011;74081;52.490;13.428;2024-03-02T02:12:42;55.00;;;39.50;;
84011;SDS011;74081;52.490;13.428;2024-03-02T02:18:08;55.20;;;39.00;;
84011;SDS011;74081;52.490;13.428;2024-03-02T02:20:35;55.07;;;40.30;;
84011;SDS011;74081;52.490;13.428;2024-03-02T02:23:03;50.17;;;40.60;;
84011;SDS011;74081;52.490;13.428;2024-03-02T02:25:32;54.17;;;39.47;;
84011;SDS011;74081;52.490;13.428;2024-03-02T02:27:59;56.90;;;42.30;;
84011;SDS011;74081;52.490;13.428;2024-03-02T02:30:26;55.67;;;39.30;;
84011;SDS011;74081;52.490;13.428;2024-03-02T02:32:55;53.40;;;38.93;;
84011;SDS011;74081;52.490;13.428;2024-03-02T02:35:22;53.57;;;40.50;;
84011;SDS011;74081;52.490;13.428;2024-03-02T02:37:50;54.33;;;39.53;;
84011;SDS011;74081;52.490;13.428;2024-03-02T02:40:18;57.07;;;40.10;;
84011;SDS011;74081;52.490;13.428;2024-03-02T02:42:45;52.73;;;39.70;;
84011;SDS011;74081;52.490;13.428;2024-03-02T02:45:12;55.67;;;40.70;;
84011;SDS011;74081;52.490;13.428;2024-03-02T02:47:41;50.60;;;40.17;;
84011;SDS011;74081;52.490;13.428;2024-03-02T02:50:09;53.07;;;39.07;;
84011;SDS011;74081;52.490;13.428;2024-03-02T02:52:37;50.17;;;38.33;;
84011;SDS011;74081;52.490;13.428;2024-03-02T02:55:07;47.07;;;37.03;;
84011;SDS011;74081;52.490;13.428;2024-03-02T02:57:35;50.10;;;37.37;;
84011;SDS011;74081;52.490;13.428;2024-03-02T03:00:13;52.70;;;40.17;;
84011;SDS011;74081;52.490;13.428;2024-03-02T03:02:44;52.73;;;39.70;;
84011;SDS011;74081;52.490;13.428;2024-03-02T03:05:13;48.50;;;38.00;;
84011;SDS011;74081;52.490;13.428;2024-03-02T03:07:41;55.00;;;39.30;;
84011;SDS011;74081;52.490;13.428;2024-03-02T03:10:10;50.47;;;37.83;;
84011;SDS011;74081;52.490;13.428;2024-03-02T03:12:38;53.87;;;38.93;;
84011;SDS011;74081;52.490;13.428;2024-03-02T03:15:07;47.17;;;37.60;;
84011;SDS011;74081;52.490;13.428;2024-03-02T03:17:35;49.07;;;38.33;;
84011;SDS011;74081;52.490;13.428;2024-03-02T03:20:03;54.70;;;37.40;;
84011;SDS011;74081;52.490;13.428;2024-03-02T03:22:32;47.80;;;36.83;;
84011;SDS011;74081;52.490;13.428;2024-03-02T03:24:59;51.80;;;38.90;;
84011;SDS011;74081;52.490;13.428;2024-03-02T03:27:26;53.70;;;38.60;;
84011;SDS011;74081;52.490;13.428;2024-03-02T03:29:54;50.13;;;37.20;;
84011;SDS011;74081;52.490;13.428;2024-03-02T03:32:21;50.40;;;37.13;;
84011;SDS011;74081;52.490;13.428;2024-03-02T03:34:48;47.63;;;37.37;;
84011;SDS011;74081;52.490;13.428;2024-03-02T03:37:15;55.40;;;37.60;;
84011;SDS011;74081;52.490;13.428;2024-03-02T03:39:42;47.57;;;37.37;;
84011;SDS011;74081;52.490;13.428;2024-03-02T03:42:09;52.80;;;37.50;;
84011;SDS011;74081;52.490;13.428;2024-03-02T03:44:36;48.60;;;36.37;;
84011;SDS011;74081;52.490;13.428;2024-03-02T03:47:03;47.40;;;35.27;;
84011;SDS011;74081;52.490;13.428;2024-03-02T03:49:30;51.63;;;35.00;;
84011;SDS011;74081;52.490;13.428;2024-03-02T03:51:57;45.63;;;35.30;;
84011;SDS011;74081;52.490;13.428;2024-03-02T03:54:24;45.00;;;35.17;;
84011;SDS011;74081;52.490;13.428;2024-03-02T03:56:51;48.63;;;37.10;;
84011;SDS011;74081;52.490;13.428;2024-03-02T03:59:18;46.23;;;35.90;;
84011;SDS011;74081;52.490;13.428;2024-03-02T04:01:45;49.17;;;36.83;;
84011;SDS011;74081;52.490;13.428;2024-03-02T04:04:12;47.30;;;36.00;;
84011;SDS011;74081;52.490;13.428;2024-03-02T04:06:39;46.87;;;36.50;;
84011;SDS011;74081;52.490;13.428;2024-03-02T04:09:06;43.50;;;34.70;;
84011;SDS011;74081;52.490;13.428;2024-03-02T04:11:33;43.87;;;35.30;;
84011;SDS011;74081;52.490;13.428;2024-03-02T04:14:00;48.93;;;35.77;;
84011;SDS011;74081;52.490;13.428;2024-03-02T04:16:27;47.60;;;35.53;;
84011;SDS011;74081;52.490;13.428;2024-03-02T04:18:54;48.00;;;35.00;;
84011;SDS011;74081;52.490;13.428;2024-03-02T04:21:22;48.03;;;35.93;;
84011;SDS011;74081;52.490;13.428;2024-03-02T04:23:48;43.00;;;32.23;;
84011;SDS011;74081;52.490;13.428;2024-03-02T04:26:15;45.90;;;33.60;;
84011;SDS011;74081;52.490;13.428;2024-03-02T04:28:46;45.23;;;34.33;;
84011;SDS011;74081;52.490;13.428;2024-03-02T04:31:13;45.73;;;34.33;;
84011;SDS011;74081;52.490;13.428;2024-03-02T04:33:41;39.50;;;31.60;;
84011;SDS011;74081;52.490;13.428;2024-03-02T04:36:09;45.83;;;33.90;;
84011;SDS011;74081;52.490;13.428;2024-03-02T04:38:36;37.77;;;31.30;;
84011;SDS011;74081;52.490;13.428;2024-03-02T04:41:06;39.57;;;30.67;;
84011;SDS011;74081;52.490;13.428;2024-03-02T04:43:34;44.03;;;33.20;;
84011;SDS011;74081;52.490;13.428;2024-03-02T04:46:01;42.47;;;30.60;;
84011;SDS011;74081;52.490;13.428;2024-03-02T04:48:28;41.67;;;32.43;;
84011;SDS011;74081;52.490;13.428;2024-03-02T04:50:56;41.90;;;31.17;;
84011;SDS011;74081;52.490;13.428;2024-03-02T04:53:22;42.40;;;31.53;;
84011;SDS011;74081;52.490;13.428;2024-03-02T04:55:49;42.40;;;30.87;;
84011;SDS011;74081;52.490;13.428;2024-03-02T04:58:22;43.27;;;32.67;;
84011;SDS011;74081;52.490;13.428;2024-03-02T05:00:49;43.00;;;32.50;;
84011;SDS011;74081;52.490;13.428;2024-03-02T05:05:50;39.60;;;31.60;;
84011;SDS011;74081;52.490;13.428;2024-03-02T05:08:17;42.40;;;33.27;;
84011;SDS011;74081;52.490;13.428;2024-03-02T05:10:44;39.67;;;30.50;;
84011;SDS011;74081;52.490;13.428;2024-03-02T05:13:12;41.37;;;32.90;;
84011;SDS011;74081;52.490;13.428;2024-03-02T05:15:39;39.83;;;31.87;;
84011;SDS011;74081;52.490;13.428;2024-03-02T05:18:06;43.23;;;31.37;;
84011;SDS011;74081;52.490;13.428;2024-03-02T05:20:33;39.20;;;30.23;;
84011;SDS011;74081;52.490;13.428;2024-03-02T05:23:00;39.97;;;31.67;;
84011;SDS011;74081;52.490;13.428;2024-03-02T05:25:27;43.30;;;31.20;;
84011;SDS011;74081;52.490;13.428;2024-03-02T05:27:54;38.27;;;30.57;;
84011;SDS011;74081;52.490;13.428;2024-03-02T05:30:22;44.23;;;31.97;;
84011;SDS011;74081;52.490;13.428;2024-03-02T05:32:52;42.53;;;32.17;;
84011;SDS011;74081;52.490;13.428;2024-03-02T05:35:19;43.07;;;31.90;;
84011;SDS011;74081;52.490;13.428;2024-03-02T05:37:45;42.00;;;32.03;;
84011;SDS011;74081;52.490;13.428;2024-03-02T05:40:13;41.63;;;32.63;;
84011;SDS011;74081;52.490;13.428;2024-03-02T05:42:39;42.77;;;31.13;;
84011;SDS011;74081;52.490;13.428;2024-03-02T05:45:07;46.40;;;34.27;;
84011;SDS011;74081;52.490;13.428;2024-03-02T05:47:35;42.30;;;35.00;;
84011;SDS011;74081;52.490;13.428;2024-03-02T05:50:02;45.70;;;34.30;;
84011;SDS011;74081;52.490;13.428;2024-03-02T05:52:30;48.20;;;34.10;;
84011;SDS011;74081;52.490;13.428;2024-03-02T05:54:57;42.93;;;35.07;;
84011;SDS011;74081;52.490;13.428;2024-03-02T05:57:24;45.70;;;35.57;;
84011;SDS011;74081;52.490;13.428;2024-03-02T06:00:10;42.90;;;32.20;;
84011;SDS011;74081;52.490;13.428;2024-03-02T06:02:40;49.03;;;35.67;;
84011;SDS011;74081;52.490;13.428;2024-03-02T06:05:07;45.63;;;33.67;;
84011;SDS011;74081;52.490;13.428;2024-03-02T06:07:35;46.53;;;35.03;;
84011;SDS011;74081;52.490;13.428;2024-03-02T06:10:02;47.53;;;34.70;;
84011;SDS011;74081;52.490;13.428;2024-03-02T06:12:30;56.93;;;38.27;;
84011;SDS011;74081;52.490;13.428;2024-03-02T06:14:59;50.57;;;36.03;;
84011;SDS011;74081;52.490;13.428;2024-03-02T06:17:26;48.63;;;34.70;;
84011;SDS011;74081;52.490;13.428;2024-03-02T06:19:52;40.80;;;31.93;;
84011;SDS011;74081;52.490;13.428;2024-03-02T06:22:20;45.77;;;34.17;;
84011;SDS011;74081;52.490;13.428;2024-03-02T06:24:47;51.57;;;37.13;;
84011;SDS011;74081;52.490;13.428;2024-03-02T06:27:14;47.77;;;34.30;;
84011;SDS011;74081;52.490;13.428;2024-03-02T06:29:41;42.83;;;32.07;;
84011;SDS011;74081;52.490;13.428;2024-03-02T06:32:08;45.23;;;34.50;;
84011;SDS011;74081;52.490;13.428;2024-03-02T06:34:35;46.37;;;33.80;;
84011;SDS011;74081;52.490;13.428;2024-03-02T06:37:02;50.80;;;36.60;;
84011;SDS011;74081;52.490;13.428;2024-03-02T06:39:29;47.27;;;35.90;;
84011;SDS011;74081;52.490;13.428;2024-03-02T06:41:57;49.67;;;37.30;;
84011;SDS011;74081;52.490;13.428;2024-03-02T06:44:24;49.67;;;34.87;;
84011;SDS011;74081;52.490;13.428;2024-03-02T06:46:51;48.80;;;35.80;;
84011;SDS011;74081;52.490;13.428;2024-03-02T06:49:18;52.57;;;38.17;;
84011;SDS011;74081;52.490;13.428;2024-03-02T06:51:45;51.80;;;36.10;;
84011;SDS011;74081;52.490;13.428;2024-03-02T06:54:12;46.70;;;35.53;;
84011;SDS011;74081;52.490;13.428;2024-03-02T06:56:38;52.47;;;39.97;;
84011;SDS011;74081;52.490;13.428;2024-03-02T06:59:06;54.57;;;37.77;;
84011;SDS011;74081;52.490;13.428;2024-03-02T07:01:33;54.87;;;36.93;;
84011;SDS011;74081;52.490;13.428;2024-03-02T07:04:00;57.20;;;39.17;;
84011;SDS011;74081;52.490;13.428;2024-03-02T07:06:28;52.73;;;40.13;;
84011;SDS011;74081;52.490;13.428;2024-03-02T07:08:55;56.13;;;39.90;;
84011;SDS011;74081;52.490;13.428;2024-03-02T07:11:22;53.80;;;38.93;;
84011;SDS011;74081;52.490;13.428;2024-03-02T07:13:49;56.03;;;40.80;;
84011;SDS011;74081;52.490;13.428;2024-03-02T07:16:16;52.90;;;37.50;;
84011;SDS011;74081;52.490;13.428;2024-03-02T07:18:45;55.80;;;39.50;;
84011;SDS011;74081;52.490;13.428;2024-03-02T07:21:18;53.80;;;39.30;;
84011;SDS011;74081;52.490;13.428;2024-03-02T07:23:45;48.50;;;35.83;;
84011;SDS011;74081;52.490;13.428;2024-03-02T07:26:12;55.87;;;38.57;;
84011;SDS011;74081;52.490;13.428;2024-03-02T07:28:42;49.47;;;36.60;;
84011;SDS011;74081;52.490;13.428;2024-03-02T07:31:10;54.97;;;35.17;;
84011;SDS011;74081;52.490;13.428;2024-03-02T07:33:37;49.37;;;37.83;;
84011;SDS011;74081;52.490;13.428;2024-03-02T07:36:04;52.30;;;35.00;;
84011;SDS011;74081;52.490;13.428;2024-03-02T07:38:31;50.13;;;36.63;;
84011;SDS011;74081;52.490;13.428;2024-03-02T07:41:00;52.63;;;36.10;;
84011;SDS011;74081;52.490;13.428;2024-03-02T07:43:27;50.27;;;34.20;;
84011;SDS011;74081;52.490;13.428;2024-03-02T07:45:55;52.73;;;34.83;;
84011;SDS011;74081;52.490;13.428;2024-03-02T07:48:23;49.93;;;35.37;;
84011;SDS011;74081;52.490;13.428;2024-03-02T07:50:50;49.40;;;35.87;;
84011;SDS011;74081;52.490;13.428;2024-03-02T07:53:17;51.77;;;37.20;;
84011;SDS011;74081;52.490;13.428;2024-03-02T07:55:44;46.60;;;35.07;;
84011;SDS011;74081;52.490;13.428;2024-03-02T07:58:11;46.67;;;33.83;;
84011;SDS011;74081;52.490;13.428;2024-03-02T08:00:39;51.43;;;33.90;;
84011;SDS011;74081;52.490;13.428;2024-03-02T08:03:06;45.10;;;33.90;;
84011;SDS011;74081;52.490;13.428;2024-03-02T08:05:37;47.83;;;34.80;;
84011;SDS011;74081;52.490;13.428;2024-03-02T08:08:05;45.33;;;34.57;;
84011;SDS011;74081;52.490;13.428;2024-03-02T08:10:32;45.60;;;34.87;;
84011;SDS011;74081;52.490;13.428;2024-03-02T08:12:59;46.53;;;34.77;;
84011;SDS011;74081;52.490;13.428;2024-03-02T08:15:27;46.00;;;34.53;;
84011;SDS011;74081;52.490;13.428;2024-03-02T08:17:53;46.43;;;34.30;;
84011;SDS011;74081;52.490;13.428;2024-03-02T08:20:21;49.67;;;34.57;;
84011;SDS011;74081;52.490;13.428;2024-03-02T08:22:48;47.73;;;35.33;;
84011;SDS011;74081;52.490;13.428;2024-03-02T08:25:15;48.37;;;33.47;;
84011;SDS011;74081;52.490;13.428;2024-03-02T08:27:42;46.07;;;35.10;;
84011;SDS011;74081;52.490;13.428;2024-03-02T08:30:10;42.30;;;32.10;;
84011;SDS011;74081;52.490;13.428;2024-03-02T08:32:37;45.33;;;33.70;;
84011;SDS011;74081;52.490;13.428;2024-03-02T08:35:04;46.50;;;33.40;;
84011;SDS011;74081;52.490;13.428;2024-03-02T08:37:32;43.67;;;33.60;;
84011;SDS011;74081;52.490;13.428;2024-03-02T08:39:58;45.13;;;33.60;;
84011;SDS011;74081;52.490;13.428;2024-03-02T08:42:26;43.40;;;34.30;;
84011;SDS011;74081;52.490;13.428;2024-03-02T08:44:53;43.47;;;34.20;;
84011;SDS011;74081;52.490;13.428;2024-03-02T08:47:20;44.37;;;31.70;;
84011;SDS011;74081;52.490;13.428;2024-03-02T08:49:47;47.60;;;33.17;;
84011;SDS011;74081;52.490;13.428;2024-03-02T08:52:14;43.73;;;32.17;;
84011;SDS011;74081;52.490;13.428;2024-03-02T08:54:41;49.43;;;34.80;;
84011;SDS011;74081;52.490;13.428;2024-03-02T08:57:07;49.63;;;34.97;;
84011;SDS011;74081;52.490;13.428;2024-03-02T08:59:34;48.17;;;35.40;;
84011;SDS011;74081;52.490;13.428;2024-03-02T09:02:01;46.43;;;34.20;;
84011;SDS011;74081;52.490;13.428;2024-03-02T09:04:28;45.60;;;34.50;;
84011;SDS011;74081;52.490;13.428;2024-03-02T09:07:00;46.07;;;33.80;;
84011;SDS011;74081;52.490;13.428;2024-03-02T09:09:27;43.10;;;32.97;;
84011;SDS011;74081;52.490;13.428;2024-03-02T09:11:54;45.43;;;33.90;;
84011;SDS011;74081;52.490;13.428;2024-03-02T09:14:21;42.93;;;32.80;;
84011;SDS011;74081;52.490;13.428;2024-03-02T09:16:48;43.17;;;33.90;;
84011;SDS011;74081;52.490;13.428;2024-03-02T09:19:15;46.60;;;33.47;;
84011;SDS011;74081;52.490;13.428;2024-03-02T09:21:42;46.40;;;35.10;;
84011;SDS011;74081;52.490;13.428;2024-03-02T09:24:10;44.10;;;33.30;;
84011;SDS011;74081;52.490;13.428;2024-03-02T09:26:38;49.13;;;37.00;;
84011;SDS011;74081;52.490;13.428;2024-03-02T09:29:06;52.10;;;37.40;;
84011;SDS011;74081;52.490;13.428;2024-03-02T09:31:32;46.13;;;34.67;;
84011;SDS011;74081;52.490;13.428;2024-03-02T09:33:59;48.10;;;33.40;;
84011;SDS011;74081;52.490;13.428;2024-03-02T09:36:26;43.07;;;32.83;;
84011;SDS011;74081;52.490;13.428;2024-03-02T09:38:54;44.80;;;34.03;;
84011;SDS011;74081;52.490;13.428;2024-03-02T09:41:20;53.60;;;33.13;;
84011;SDS011;74081;52.490;13.428;2024-03-02T09:43:47;49.77;;;34.17;;
84011;SDS011;74081;52.490;13.428;2024-03-02T09:46:14;41.40;;;31.90;;
84011;SDS011;74081;52.490;13.428;2024-03-02T09:48:41;42.90;;;31.80;;
84011;SDS011;74081;52.490;13.428;2024-03-02T09:51:11;45.63;;;32.23;;
84011;SDS011;74081;52.490;13.428;2024-03-02T09:53:38;41.27;;;32.27;;
84011;SDS011;74081;52.490;13.428;2024-03-02T09:56:06;48.60;;;34.20;;
84011;SDS011;74081;52.490;13.428;2024-03-02T09:58:33;39.00;;;31.83;;
84011;SDS011;74081;52.490;13.428;2024-03-02T10:01:00;41.90;;;32.40;;
84011;SDS011;74081;52.490;13.428;2024-03-02T10:03:27;52.50;;;36.23;;
84011;SDS011;74081;52.490;13.428;2024-03-02T10:05:56;38.77;;;30.10;;
84011;SDS011;74081;52.490;13.428;2024-03-02T10:08:43;47.23;;;34.00;;
84011;SDS011;74081;52.490;13.428;2024-03-02T10:11:10;46.93;;;34.47;;
84011;SDS011;74081;52.490;13.428;2024-03-02T10:13:37;46.63;;;35.20;;
84011;SDS011;74081;52.490;13.428;2024-03-02T10:16:11;38.03;;;30.60;;
84011;SDS011;74081;52.490;13.428;2024-03-02T10:18:38;40.80;;;30.53;;
84011;SDS011;74081;52.490;13.428;2024-03-02T10:21:14;45.60;;;32.80;;
84011;SDS011;74081;52.490;13.428;2024-03-02T10:23:41;36.40;;;27.73;;
84011;SDS011;74081;52.490;13.428;2024-03-02T10:26:18;35.53;;;28.70;;
84011;SDS011;74081;52.490;13.428;2024-03-02T10:28:48;33.03;;;26.07;;
84011;SDS011;74081;52.490;13.428;2024-03-02T10:31:15;34.87;;;27.60;;
84011;SDS011;74081;52.490;13.428;2024-03-02T10:33:42;33.00;;;25.83;;
84011;SDS011;74081;52.490;13.428;2024-03-02T10:36:09;33.53;;;24.73;;
84011;SDS011;74081;52.490;13.428;2024-03-02T10:38:36;32.20;;;24.63;;
84011;SDS011;74081;52.490;13.428;2024-03-02T10:41:03;35.27;;;25.57;;
84011;SDS011;74081;52.490;13.428;2024-03-02T10:43:31;31.57;;;24.10;;
84011;SDS011;74081;52.490;13.428;2024-03-02T10:45:58;33.73;;;25.37;;
84011;SDS011;74081;52.490;13.428;2024-03-02T10:48:25;31.33;;;25.57;;
84011;SDS011;74081;52.490;13.428;2024-03-02T10:50:54;31.47;;;24.53;;
84011;SDS011;74081;52.490;13.428;2024-03-02T10:53:21;29.87;;;23.80;;
84011;SDS011;74081;52.490;13.428;2024-03-02T10:55:48;28.40;;;23.90;;
84011;SDS011;74081;52.490;13.428;2024-03-02T10:58:19;30.40;;;24.40;;
84011;SDS011;74081;52.490;13.428;2024-03-02T11:00:47;30.83;;;23.90;;
84011;SDS011;74081;52.490;13.428;2024-03-02T11:03:14;30.10;;;23.10;;
84011;SDS011;74081;52.490;13.428;2024-03-02T11:05:43;30.27;;;23.00;;
84011;SDS011;74081;52.490;13.428;2024-03-02T11:08:16;28.00;;;22.90;;
84011;SDS011;74081;52.490;13.428;2024-03-02T11:10:48;30.63;;;24.90;;
84011;SDS011;74081;52.490;13.428;2024-03-02T11:13:20;29.50;;;23.20;;
84011;SDS011;74081;52.490;13.428;2024-03-02T11:15:52;31.53;;;22.77;;
84011;SDS011;74081;52.490;13.428;2024-03-02T11:18:21;32.90;;;24.37;;
84011;SDS011;74081;52.490;13.428;2024-03-02T11:20:49;33.27;;;24.50;;
84011;SDS011;74081;52.490;13.428;2024-03-02T11:23:16;31.47;;;23.10;;
84011;SDS011;74081;52.490;13.428;2024-03-02T11:25:43;28.83;;;25.07;;
84011;SDS011;74081;52.490;13.428;2024-03-02T11:28:10;31.23;;;24.63;;
84011;SDS011;74081;52.490;13.428;2024-03-02T11:33:05;29.40;;;23.70;;
84011;SDS011;74081;52.490;13.428;2024-03-02T11:35:42;33.03;;;24.53;;
84011;SDS011;74081;52.490;13.428;2024-03-02T11:38:13;33.70;;;24.50;;
84011;SDS011;74081;52.490;13.428;2024-03-02T11:40:40;30.80;;;22.37;;
84011;SDS011;74081;52.490;13.428;2024-03-02T11:43:07;32.93;;;23.13;;
84011;SDS011;74081;52.490;13.428;2024-03-02T11:45:36;32.70;;;23.33;;
84011;SDS011;74081;52.490;13.428;2024-03-02T11:48:08;36.33;;;26.10;;
84011;SDS011;74081;52.490;13.428;2024-03-02T11:50:46;31.00;;;21.47;;
84011;SDS011;74081;52.490;13.428;2024-03-02T11:53:15;25.83;;;21.77;;
84011;SDS011;74081;52.490;13.428;2024-03-02T11:55:43;28.73;;;23.07;;
84011;SDS011;74081;52.490;13.428;2024-03-02T11:58:15;30.07;;;21.43;;
84011;SDS011;74081;52.490;13.428;2024-03-02T12:00:51;28.47;;;22.17;;
84011;SDS011;74081;52.490;13.428;2024-03-02T12:03:22;28.33;;;22.30;;
84011;SDS011;74081;52.490;13.428;2024-03-02T12:05:54;25.70;;;21.40;;
84011;SDS011;74081;52.490;13.428;2024-03-02T12:08:22;34.27;;;22.70;;
84011;SDS011;74081;52.490;13.428;2024-03-02T12:10:57;31.70;;;22.60;;
84011;SDS011;74081;52.490;13.428;2024-03-02T12:13:25;25.30;;;21.10;;
84011;SDS011;74081;52.490;13.428;2024-03-02T12:15:55;38.10;;;26.07;;
84011;SDS011;74081;52.490;13.428;2024-03-02T12:18:23;39.40;;;28.20;;
84011;SDS011;74081;52.490;13.428;2024-03-02T12:20:50;31.83;;;22.83;;
84011;SDS011;74081;52.490;13.428;2024-03-02T12:23:25;29.87;;;22.53;;
84011;SDS011;74081;52.490;13.428;2024-03-02T12:25:52;34.07;;;24.30;;
84011;SDS011;74081;52.490;13.428;2024-03-02T12:28:19;33.67;;;24.40;;
84011;SDS011;74081;52.490;13.428;2024-03-02T12:30:47;46.60;;;32.07;;
84011;SDS011;74081;52.490;13.428;2024-03-02T12:33:14;41.97;;;28.40;;
84011;SDS011;74081;52.490;13.428;2024-03-02T12:35:42;45.63;;;27.17;;
84011;SDS011;74081;52.490;13.428;2024-03-02T12:38:09;29.67;;;23.63;;
84011;SDS011;74081;52.490;13.428;2024-03-02T12:40:37;28.23;;;21.57;;
84011;SDS011;74081;52.490;13.428;2024-03-02T12:43:05;32.57;;;23.20;;
84011;SDS011;74081;52.490;13.428;2024-03-02T12:45:33;32.23;;;24.00;;
84011;SDS011;74081;52.490;13.428;2024-03-02T12:48:01;30.23;;;22.63;;
84011;SDS011;74081;52.490;13.428;2024-03-02T12:50:28;30.70;;;23.00;;
84011;SDS011;74081;52.490;13.428;2024-03-02T12:52:56;42.77;;;28.40;;
84011;SDS011;74081;52.490;13.428;2024-03-02T12:55:23;36.07;;;23.90;;
84011;SDS011;74081;52.490;13.428;2024-03-02T12:57:51;41.40;;;29.23;;
84011;SDS011;74081;52.490;13.428;2024-03-02T13:00:20;32.30;;;23.27;;
84011;SDS011;74081;52.490;13.428;2024-03-02T13:02:50;28.40;;;22.17;;
84011;SDS011;74081;52.490;13.428;2024-03-02T13:05:18;33.73;;;25.60;;
84011;SDS011;74081;52.490;13.428;2024-03-02T13:07:47;26.63;;;22.63;;
84011;SDS011;74081;52.490;13.428;2024-03-02T13:10:14;30.97;;;24.17;;
84011;SDS011;74081;52.490;13.428;2024-03-02T13:12:42;31.47;;;24.77;;
84011;SDS011;74081;52.490;13.428;2024-03-02T13:15:09;40.07;;;27.40;;
84011;SDS011;74081;52.490;13.428;2024-03-02T13:17:41;44.20;;;31.93;;
84011;SDS011;74081;52.490;13.428;2024-03-02T13:20:08;30.30;;;23.73;;
84011;SDS011;74081;52.490;13.428;2024-03-02T13:22:37;28.47;;;21.90;;
84011;SDS011;74081;52.490;13.428;2024-03-02T13:25:04;32.60;;;22.37;;
84011;SDS011;74081;52.490;13.428;2024-03-02T13:27:33;25.90;;;20.00;;
84011;SDS011;74081;52.490;13.428;2024-03-02T13:30:01;26.33;;;20.57;;
84011;SDS011;74081;52.490;13.428;2024-03-02T13:32:29;23.67;;;18.90;;
84011;SDS011;74081;52.490;13.428;2024-03-02T13:34:56;22.30;;;17.50;;
84011;SDS011;74081;52.490;13.428;2024-03-02T13:37:24;23.63;;;19.23;;
84011;SDS011;74081;52.490;13.428;2024-03-02T13:39:50;24.80;;;19.80;;
84011;SDS011;74081;52.490;13.428;2024-03-02T13:42:17;49.10;;;33.07;;
84011;SDS011;74081;52.490;13.428;2024-03-02T13:44:45;52.50;;;35.30;;
84011;SDS011;74081;52.490;13.428;2024-03-02T13:47:13;24.03;;;19.10;;
84011;SDS011;74081;52.490;13.428;2024-03-02T13:49:41;28.73;;;20.77;;
84011;SDS011;74081;52.490;13.428;2024-03-02T13:52:13;32.90;;;22.27;;
84011;SDS011;74081;52.490;13.428;2024-03-02T13:54:41;31.53;;;22.53;;
84011;SDS011;74081;52.490;13.428;2024-03-02T13:57:09;26.63;;;20.00;;
84011;SDS011;74081;52.490;13.428;2024-03-02T13:59:37;25.17;;;20.30;;
84011;SDS011;74081;52.490;13.428;2024-03-02T14:02:05;26.30;;;19.33;;
84011;SDS011;74081;52.490;13.428;2024-03-02T14:04:35;23.20;;;18.03;;
84011;SDS011;74081;52.490;13.428;2024-03-02T14:07:04;21.33;;;16.90;;
84011;SDS011;74081;52.490;13.428;2024-03-02T14:09:35;21.07;;;16.30;;
84011;SDS011;74081;52.490;13.428;2024-03-02T14:12:03;20.43;;;16.77;;
84011;SDS011;74081;52.490;13.428;2024-03-02T14:14:32;19.90;;;15.90;;
84011;SDS011;74081;52.490;13.428;2024-03-02T14:16:59;18.93;;;15.73;;
84011;SDS011;74081;52.490;13.428;2024-03-02T14:19:33;17.70;;;14.40;;
84011;SDS011;74081;52.490;13.428;2024-03-02T14:22:00;21.90;;;15.87;;
84011;SDS011;74081;52.490;13.428;2024-03-02T14:24:27;17.97;;;15.00;;
84011;SDS011;74081;52.490;13.428;2024-03-02T14:26:56;27.63;;;20.50;;